Flight Track Log - Related Links

Times and Time Zones

All times are in EDT time to prevent confusion due to time zone crossing. See the RPA4886 flight status page for this flight to view local times or setup timezone preferences in your user account.


Time Position Orientation Groundspeed Altitude Reporting Facility
EDT Latitude Longitude Course Direction KTS MPH feet Rate Location/Type
Fri 07:37:05 PM 42.7069 -73.8047 174° South 172 198 2,200  Level Boston Center
Fri 07:37:56 PM 42.6769 -73.8578 232° Southwest 228 262 4,300 2,541 Climbing Boston Center
Fri 07:38:56 PM 42.6867 -73.9342 280° West 228 262 6,900 2,650 Climbing Boston Center
Fri 07:39:00 PM 42.7334 -74.1876 270° West  Level FlightAware Approximate
Fri 07:39:56 PM 42.7000 -74.0222 282° West 243 280 9,600  Level Boston Center
Fri 07:40:00 PM 42.7264 -74.3139 236° Southwest  Level FlightAware Approximate
Fri 07:40:56 PM 42.7133 -74.1100 282° West 238 274 11,900  Level Boston Center
Fri 07:41:00 PM 42.6569 -74.4007 220° Southwest  Level FlightAware Approximate
Fri 07:41:56 PM 42.7247 -74.1756 283° West 238 274 13,400  Level Boston Center
Fri 07:42:56 PM 42.7394 -74.3058 279° West 263 303 15,400 1,750 Climbing Boston Center
Fri 07:43:56 PM 42.6881 -74.3778 226° Southwest 269 310 16,900 1,350 Climbing Boston Center
Fri 07:44:56 PM 42.6181 -74.4575 220° Southwest 289 333 18,100 1,300 Climbing Boston Center
Fri 07:45:56 PM 42.5642 -74.5458 230° Southwest 304 350 19,500 950 Climbing Boston Center
Fri 07:46:56 PM 42.5061 -74.6397 230° Southwest 314 361 20,000 250 Climbing Boston Center
Fri 07:47:56 PM 42.4417 -74.7386 229° Southwest 334 384 20,000  Level Boston Center
Fri 07:48:56 PM 42.3836 -74.8322 230° Southwest 357 411 20,000  Level Boston Center
Fri 07:51:23 PM 42.2153 -75.0883 228° Southwest 381 438 20,000  Level New York Center
Fri 07:52:22 PM 42.1428 -75.1956 228° Southwest 381 438 20,000  Level New York Center
Fri 07:53:23 PM 42.0764 -75.3028 230° Southwest 381 438 20,000  Level New York Center
Fri 07:54:21 PM 42.0136 -75.4156 233° Southwest 381 438 20,000  Level New York Center
Fri 07:55:22 PM 41.9589 -75.5372 239° Southwest 381 438 20,000  Level New York Center
Fri 07:56:24 PM 41.8981 -75.6528 235° Southwest 381 438 20,000  Level New York Center
Fri 07:57:21 PM 41.8411 -75.7711 237° Southwest 381 438 20,000  Level New York Center
Fri 07:58:23 PM 41.7839 -75.8864 236° Southwest 381 438 20,000  Level New York Center
Fri 07:59:21 PM 41.7269 -76.0017 237° Southwest 381 438 20,000  Level New York Center
Fri 08:00:22 PM 41.6719 -76.1139 237° Southwest 381 438 20,000 -793 Level New York Center
Fri 08:01:22 PM 41.6125 -76.2311 236° Southwest 381 438 18,400 -1,785 Descending New York Center
Fri 08:02:23 PM 41.5483 -76.3561 236° Southwest 381 438 16,400 -1,190 Descending New York Center
Fri 08:03:23 PM 41.4908 -76.4678 236° Southwest 381 438 16,000 -203 Descending New York Center
Fri 08:04:21 PM 41.4353 -76.5847 238° Southwest 381 438 16,000  Level New York Center
Fri 08:05:22 PM 41.3775 -76.6989 236° Southwest 375 432 16,000  Level New York Center
Fri 08:06:23 PM 41.3025 -76.7833 220° Southwest 359 413 16,000  Level New York Center
Fri 08:07:20 PM 41.2014 -76.8047 189° South 348 400 16,000  Level New York Center
Fri 08:08:22 PM 41.1003 -76.8258 189° South 359 413 16,000  Level New York Center
Fri 08:09:22 PM 40.9972 -76.8442 188° South 365 420 16,000  Level New York Center
Fri 08:10:22 PM 40.8983 -76.8658 189° South 370 426 16,000  Level New York Center
Fri 08:11:23 PM 40.8056 -76.8822 188° South 375 432 16,000  Level New York Center
Fri 08:12:23 PM 40.6958 -76.9133 192° South 375 432 16,000 51 Level New York Center
Fri 08:13:21 PM 40.6067 -76.9436 194° South 375 432 16,100  Climbing New York Center
Fri 08:14:21 PM 40.4986 -76.9778 194° South 375 432 16,000 -50 Descending New York Center
Fri 08:15:21 PM 40.4075 -77.0050 193° South 375 432 16,000 -496 Level New York Center
Fri 08:16:22 PM 40.2972 -77.0386 193° South 375 432 15,000 -1,219 Descending New York Center
Fri 08:18:28 PM 40.1167 -77.1000 195° South 309 356 12,200 -1,313 Descending Potomac TRACON
Fri 08:19:34 PM 40.0167 -77.1167 187° South 298 343 10,800 -1,286 Descending Potomac TRACON
Fri 08:20:34 PM 39.9500 -77.1500 201° Southwest 271 312 9,500 -991 Descending Potomac TRACON
Fri 08:21:29 PM 39.8833 -77.1667 191° South 271 312 8,900 -783 Descending Potomac TRACON
Fri 08:22:29 PM 39.8167 -77.2167 210° Southwest 264 304 8,000 -900 Descending Potomac TRACON
Fri 08:23:29 PM 39.7500 -77.2500 201° Southwest 267 307 7,100 -500 Descending Potomac TRACON
Fri 08:24:29 PM 39.6833 -77.3000 210° Southwest 255 293 7,000 -48 Descending Potomac TRACON
Fri 08:25:35 PM 39.6167 -77.3333 201° Southwest 255 293 7,000  Level Potomac TRACON
Fri 08:26:35 PM 39.5500 -77.3667 201° Southwest 267 307 7,000 -600 Level Potomac TRACON
Fri 08:27:35 PM 39.4833 -77.4167 210° Southwest 257 296 5,800 -950 Descending Potomac TRACON
Fri 08:28:35 PM 39.4167 -77.4500 201° Southwest 250 288 5,100 -400 Descending Potomac TRACON
Fri 08:29:35 PM 39.3500 -77.4500 180° South 241 277 5,000 -100 Descending Potomac TRACON
Fri 08:30:35 PM 39.2833 -77.4500 180° South 241 277 4,900 -450 Descending Potomac TRACON
Fri 08:31:35 PM 39.2167 -77.4500 180° South 238 274 4,100 -500 Descending Potomac TRACON
Fri 08:32:35 PM 39.1500 -77.4500 180° South 229 264 3,900 -650 Descending Potomac TRACON
Fri 08:33:35 PM 39.1000 -77.4500 180° South 203 234 2,800 -1,041 Descending Potomac TRACON
Fri 08:34:36 PM 39.0500 -77.4667 195° South 164 189 1,800 -843 Descending Potomac TRACON
Fri 08:35:36 PM 39.0000 -77.4667 180° South 125 144 1,100 -700 Descending Potomac TRACON

Login

Don't have an account? Register now (free) for customized features, flight alerts, and more!